sensor_id;sensor_type;location;lat;lon;timestamp;P1;durP1;ratioP1;P2;durP2;ratioP2
7813;SDS011;3952;48.364;16.022;2024-02-26T00:01:31;15.70;;;14.00;;
7813;SDS011;3952;48.364;16.022;2024-02-26T00:04:00;16.03;;;14.37;;
7813;SDS011;3952;48.364;16.022;2024-02-26T00:06:28;17.93;;;14.67;;
7813;SDS011;3952;48.364;16.022;2024-02-26T00:08:58;16.23;;;14.53;;
7813;SDS011;3952;48.364;16.022;2024-02-26T00:11:27;14.97;;;13.43;;
7813;SDS011;3952;48.364;16.022;2024-02-26T00:13:55;38.27;;;14.77;;
7813;SDS011;3952;48.364;16.022;2024-02-26T00:16:25;15.57;;;14.00;;
7813;SDS011;3952;48.364;16.022;2024-02-26T00:18:53;15.77;;;14.07;;
7813;SDS011;3952;48.364;16.022;2024-02-26T00:21:22;15.17;;;13.67;;
7813;SDS011;3952;48.364;16.022;2024-02-26T00:23:49;16.43;;;13.63;;
7813;SDS011;3952;48.364;16.022;2024-02-26T00:26:16;15.57;;;13.97;;
7813;SDS011;3952;48.364;16.022;2024-02-26T00:28:44;34.50;;;15.50;;
7813;SDS011;3952;48.364;16.022;2024-02-26T00:31:11;15.93;;;13.90;;
7813;SDS011;3952;48.364;16.022;2024-02-26T00:33:38;16.80;;;14.17;;
7813;SDS011;3952;48.364;16.022;2024-02-26T00:36:06;17.30;;;14.40;;
7813;SDS011;3952;48.364;16.022;2024-02-26T00:38:35;15.83;;;14.23;;
7813;SDS011;3952;48.364;16.022;2024-02-26T00:41:02;16.23;;;14.57;;
7813;SDS011;3952;48.364;16.022;2024-02-26T00:43:30;18.00;;;14.07;;
7813;SDS011;3952;48.364;16.022;2024-02-26T00:45:57;16.60;;;14.63;;
7813;SDS011;3952;48.364;16.022;2024-02-26T00:48:24;19.00;;;13.77;;
7813;SDS011;3952;48.364;16.022;2024-02-26T00:50:52;15.60;;;14.00;;
7813;SDS011;3952;48.364;16.022;2024-02-26T00:53:19;15.90;;;14.30;;
7813;SDS011;3952;48.364;16.022;2024-02-26T00:55:48;14.90;;;13.30;;
7813;SDS011;3952;48.364;16.022;2024-02-26T00:58:15;33.27;;;14.10;;
7813;SDS011;3952;48.364;16.022;2024-02-26T01:00:42;33.00;;;13.77;;
7813;SDS011;3952;48.364;16.022;2024-02-26T01:03:10;13.97;;;12.67;;
7813;SDS011;3952;48.364;16.022;2024-02-26T01:05:37;16.17;;;13.43;;
7813;SDS011;3952;48.364;16.022;2024-02-26T01:08:04;14.93;;;13.53;;
7813;SDS011;3952;48.364;16.022;2024-02-26T01:10:32;17.23;;;14.27;;
7813;SDS011;3952;48.364;16.022;2024-02-26T01:13:01;14.13;;;12.83;;
7813;SDS011;3952;48.364;16.022;2024-02-26T01:15:29;13.87;;;12.53;;
7813;SDS011;3952;48.364;16.022;2024-02-26T01:17:56;14.90;;;13.47;;
7813;SDS011;3952;48.364;16.022;2024-02-26T01:20:24;15.23;;;13.37;;
7813;SDS011;3952;48.364;16.022;2024-02-26T01:22:51;15.77;;;12.70;;
7813;SDS011;3952;48.364;16.022;2024-02-26T01:25:19;17.03;;;13.50;;
7813;SDS011;3952;48.364;16.022;2024-02-26T01:27:46;17.73;;;12.17;;
7813;SDS011;3952;48.364;16.022;2024-02-26T01:30:15;14.10;;;12.83;;
7813;SDS011;3952;48.364;16.022;2024-02-26T01:32:42;14.17;;;12.87;;
7813;SDS011;3952;48.364;16.022;2024-02-26T01:35:10;14.60;;;13.27;;
7813;SDS011;3952;48.364;16.022;2024-02-26T01:37:37;13.43;;;12.13;;
7813;SDS011;3952;48.364;16.022;2024-02-26T01:40:05;14.13;;;12.83;;
7813;SDS011;3952;48.364;16.022;2024-02-26T01:42:34;14.73;;;13.23;;
7813;SDS011;3952;48.364;16.022;2024-02-26T01:45:05;16.40;;;13.17;;
7813;SDS011;3952;48.364;16.022;2024-02-26T01:47:36;13.87;;;12.60;;
7813;SDS011;3952;48.364;16.022;2024-02-26T01:50:04;13.03;;;11.67;;
7813;SDS011;3952;48.364;16.022;2024-02-26T01:52:32;13.40;;;12.17;;
7813;SDS011;3952;48.364;16.022;2024-02-26T01:54:59;13.47;;;12.27;;
7813;SDS011;3952;48.364;16.022;2024-02-26T01:57:27;14.10;;;12.80;;
7813;SDS011;3952;48.364;16.022;2024-02-26T01:59:55;12.73;;;11.67;;
7813;SDS011;3952;48.364;16.022;2024-02-26T02:02:23;14.03;;;12.57;;
7813;SDS011;3952;48.364;16.022;2024-02-26T02:04:52;12.70;;;11.63;;
7813;SDS011;3952;48.364;16.022;2024-02-26T02:07:20;12.77;;;11.73;;
7813;SDS011;3952;48.364;16.022;2024-02-26T02:09:49;12.93;;;11.83;;
7813;SDS011;3952;48.364;16.022;2024-02-26T02:12:17;13.47;;;12.33;;
7813;SDS011;3952;48.364;16.022;2024-02-26T02:14:45;13.33;;;12.13;;
7813;SDS011;3952;48.364;16.022;2024-02-26T02:17:12;13.27;;;11.97;;
7813;SDS011;3952;48.364;16.022;2024-02-26T02:19:40;12.33;;;11.23;;
7813;SDS011;3952;48.364;16.022;2024-02-26T02:22:09;12.23;;;11.23;;
7813;SDS011;3952;48.364;16.022;2024-02-26T02:24:38;12.87;;;11.70;;
7813;SDS011;3952;48.364;16.022;2024-02-26T02:27:05;12.00;;;11.00;;
7813;SDS011;3952;48.364;16.022;2024-02-26T02:29:32;12.53;;;11.53;;
7813;SDS011;3952;48.364;16.022;2024-02-26T02:32:00;13.13;;;12.00;;
7813;SDS011;3952;48.364;16.022;2024-02-26T02:34:29;12.10;;;11.10;;
7813;SDS011;3952;48.364;16.022;2024-02-26T02:36:57;12.87;;;11.70;;
7813;SDS011;3952;48.364;16.022;2024-02-26T02:39:25;12.00;;;11.03;;
7813;SDS011;3952;48.364;16.022;2024-02-26T02:41:53;13.10;;;11.97;;
7813;SDS011;3952;48.364;16.022;2024-02-26T02:44:20;12.67;;;11.57;;
7813;SDS011;3952;48.364;16.022;2024-02-26T02:46:47;13.60;;;11.87;;
7813;SDS011;3952;48.364;16.022;2024-02-26T02:49:17;13.07;;;11.90;;
7813;SDS011;3952;48.364;16.022;2024-02-26T02:51:44;12.57;;;11.47;;
7813;SDS011;3952;48.364;16.022;2024-02-26T02:54:11;12.00;;;11.03;;
7813;SDS011;3952;48.364;16.022;2024-02-26T02:56:40;13.00;;;11.90;;
7813;SDS011;3952;48.364;16.022;2024-02-26T02:59:08;12.67;;;11.67;;
7813;SDS011;3952;48.364;16.022;2024-02-26T03:01:35;13.27;;;12.07;;
7813;SDS011;3952;48.364;16.022;2024-02-26T03:04:02;12.73;;;11.63;;
7813;SDS011;3952;48.364;16.022;2024-02-26T03:06:30;12.27;;;11.27;;
7813;SDS011;3952;48.364;16.022;2024-02-26T03:08:57;11.97;;;10.97;;
7813;SDS011;3952;48.364;16.022;2024-02-26T03:11:26;11.63;;;10.63;;
7813;SDS011;3952;48.364;16.022;2024-02-26T03:13:55;12.80;;;11.60;;
7813;SDS011;3952;48.364;16.022;2024-02-26T03:16:22;12.00;;;10.87;;
7813;SDS011;3952;48.364;16.022;2024-02-26T03:18:49;13.20;;;11.80;;
7813;SDS011;3952;48.364;16.022;2024-02-26T03:21:17;12.80;;;11.63;;
7813;SDS011;3952;48.364;16.022;2024-02-26T03:23:45;11.97;;;10.97;;
7813;SDS011;3952;48.364;16.022;2024-02-26T03:26:12;11.93;;;10.83;;
7813;SDS011;3952;48.364;16.022;2024-02-26T03:28:40;12.60;;;11.60;;
7813;SDS011;3952;48.364;16.022;2024-02-26T03:31:08;11.87;;;10.87;;
7813;SDS011;3952;48.364;16.022;2024-02-26T03:33:39;10.83;;;9.93;;
7813;SDS011;3952;48.364;16.022;2024-02-26T03:36:07;11.87;;;10.87;;
7813;SDS011;3952;48.364;16.022;2024-02-26T03:38:34;12.00;;;11.00;;
7813;SDS011;3952;48.364;16.022;2024-02-26T03:41:02;12.40;;;11.40;;
7813;SDS011;3952;48.364;16.022;2024-02-26T03:43:29;11.00;;;10.20;;
7813;SDS011;3952;48.364;16.022;2024-02-26T03:45:57;11.67;;;10.57;;
7813;SDS011;3952;48.364;16.022;2024-02-26T03:48:26;11.93;;;10.97;;
7813;SDS011;3952;48.364;16.022;2024-02-26T03:50:53;10.87;;;9.97;;
7813;SDS011;3952;48.364;16.022;2024-02-26T03:53:23;11.43;;;10.53;;
7813;SDS011;3952;48.364;16.022;2024-02-26T03:55:50;10.57;;;9.77;;
7813;SDS011;3952;48.364;16.022;2024-02-26T03:58:18;11.43;;;10.43;;
7813;SDS011;3952;48.364;16.022;2024-02-26T04:00:45;11.63;;;10.73;;
7813;SDS011;3952;48.364;16.022;2024-02-26T04:03:13;11.37;;;10.47;;
7813;SDS011;3952;48.364;16.022;2024-02-26T04:05:42;11.33;;;10.33;;
7813;SDS011;3952;48.364;16.022;2024-02-26T04:08:09;11.40;;;10.47;;
7813;SDS011;3952;48.364;16.022;2024-02-26T04:10:37;11.50;;;10.50;;
7813;SDS011;3952;48.364;16.022;2024-02-26T04:13:04;10.87;;;9.97;;
7813;SDS011;3952;48.364;16.022;2024-02-26T04:15:33;11.43;;;10.53;;
7813;SDS011;3952;48.364;16.022;2024-02-26T04:18:00;12.47;;;11.33;;
7813;SDS011;3952;48.364;16.022;2024-02-26T04:20:28;11.70;;;10.73;;
7813;SDS011;3952;48.364;16.022;2024-02-26T04:22:56;11.20;;;10.30;;
7813;SDS011;3952;48.364;16.022;2024-02-26T04:25:24;11.57;;;10.47;;
7813;SDS011;3952;48.364;16.022;2024-02-26T04:27:52;10.23;;;9.33;;
7813;SDS011;3952;48.364;16.022;2024-02-26T04:30:19;11.37;;;10.37;;
7813;SDS011;3952;48.364;16.022;2024-02-26T04:32:47;11.23;;;10.23;;
7813;SDS011;3952;48.364;16.022;2024-02-26T04:35:14;10.57;;;9.70;;
7813;SDS011;3952;48.364;16.022;2024-02-26T04:37:41;10.93;;;9.97;;
7813;SDS011;3952;48.364;16.022;2024-02-26T04:40:10;11.90;;;9.70;;
7813;SDS011;3952;48.364;16.022;2024-02-26T04:42:38;10.83;;;9.83;;
7813;SDS011;3952;48.364;16.022;2024-02-26T04:45:06;10.87;;;9.87;;
7813;SDS011;3952;48.364;16.022;2024-02-26T04:47:34;12.83;;;11.57;;
7813;SDS011;3952;48.364;16.022;2024-02-26T04:50:02;11.27;;;10.27;;
7813;SDS011;3952;48.364;16.022;2024-02-26T04:52:29;11.93;;;10.80;;
7813;SDS011;3952;48.364;16.022;2024-02-26T04:54:56;13.83;;;11.30;;
7813;SDS011;3952;48.364;16.022;2024-02-26T04:57:26;12.40;;;11.30;;
7813;SDS011;3952;48.364;16.022;2024-02-26T04:59:54;12.23;;;10.60;;
7813;SDS011;3952;48.364;16.022;2024-02-26T05:02:21;12.60;;;11.40;;
7813;SDS011;3952;48.364;16.022;2024-02-26T05:04:49;15.27;;;11.57;;
7813;SDS011;3952;48.364;16.022;2024-02-26T05:07:16;12.60;;;11.50;;
7813;SDS011;3952;48.364;16.022;2024-02-26T05:09:44;15.70;;;11.03;;
7813;SDS011;3952;48.364;16.022;2024-02-26T05:12:11;14.80;;;11.17;;
7813;SDS011;3952;48.364;16.022;2024-02-26T05:14:40;18.07;;;10.73;;
7813;SDS011;3952;48.364;16.022;2024-02-26T05:17:08;13.87;;;11.87;;
7813;SDS011;3952;48.364;16.022;2024-02-26T05:19:35;12.80;;;10.80;;
7813;SDS011;3952;48.364;16.022;2024-02-26T05:22:02;11.50;;;10.30;;
7813;SDS011;3952;48.364;16.022;2024-02-26T05:24:30;11.40;;;10.27;;
7813;SDS011;3952;48.364;16.022;2024-02-26T05:26:59;11.77;;;10.73;;
7813;SDS011;3952;48.364;16.022;2024-02-26T05:29:27;11.90;;;10.73;;
7813;SDS011;3952;48.364;16.022;2024-02-26T05:31:55;12.30;;;11.07;;
7813;SDS011;3952;48.364;16.022;2024-02-26T05:34:23;11.27;;;10.17;;
7813;SDS011;3952;48.364;16.022;2024-02-26T05:36:50;11.80;;;10.80;;
7813;SDS011;3952;48.364;16.022;2024-02-26T05:39:17;11.07;;;10.07;;
7813;SDS011;3952;48.364;16.022;2024-02-26T05:41:45;11.30;;;10.30;;
7813;SDS011;3952;48.364;16.022;2024-02-26T05:44:12;11.20;;;10.30;;
7813;SDS011;3952;48.364;16.022;2024-02-26T05:46:40;11.47;;;10.43;;
7813;SDS011;3952;48.364;16.022;2024-02-26T05:49:09;10.63;;;9.63;;
7813;SDS011;3952;48.364;16.022;2024-02-26T05:51:37;10.73;;;9.83;;
7813;SDS011;3952;48.364;16.022;2024-02-26T05:54:04;11.43;;;10.33;;
7813;SDS011;3952;48.364;16.022;2024-02-26T05:56:33;11.13;;;10.13;;
7813;SDS011;3952;48.364;16.022;2024-02-26T05:59:01;10.33;;;9.47;;
7813;SDS011;3952;48.364;16.022;2024-02-26T06:01:28;11.23;;;10.17;;
7813;SDS011;3952;48.364;16.022;2024-02-26T06:03:55;11.57;;;10.57;;
7813;SDS011;3952;48.364;16.022;2024-02-26T06:06:24;10.50;;;9.67;;
7813;SDS011;3952;48.364;16.022;2024-02-26T06:08:51;11.23;;;10.30;;
7813;SDS011;3952;48.364;16.022;2024-02-26T06:11:19;13.10;;;11.10;;
7813;SDS011;3952;48.364;16.022;2024-02-26T06:13:48;11.33;;;10.30;;
7813;SDS011;3952;48.364;16.022;2024-02-26T06:16:15;12.40;;;11.30;;
7813;SDS011;3952;48.364;16.022;2024-02-26T06:18:42;11.40;;;10.30;;
7813;SDS011;3952;48.364;16.022;2024-02-26T06:21:11;11.00;;;10.00;;
7813;SDS011;3952;48.364;16.022;2024-02-26T06:23:40;11.07;;;10.17;;
7813;SDS011;3952;48.364;16.022;2024-02-26T06:26:08;11.33;;;10.40;;
7813;SDS011;3952;48.364;16.022;2024-02-26T06:28:35;10.40;;;9.53;;
7813;SDS011;3952;48.364;16.022;2024-02-26T06:31:05;10.93;;;9.93;;
7813;SDS011;3952;48.364;16.022;2024-02-26T06:33:33;11.67;;;10.67;;
7813;SDS011;3952;48.364;16.022;2024-02-26T06:36:00;11.33;;;10.23;;
7813;SDS011;3952;48.364;16.022;2024-02-26T06:38:28;11.50;;;10.60;;
7813;SDS011;3952;48.364;16.022;2024-02-26T06:40:56;12.73;;;11.43;;
7813;SDS011;3952;48.364;16.022;2024-02-26T06:43:24;12.57;;;11.33;;
7813;SDS011;3952;48.364;16.022;2024-02-26T06:45:51;11.90;;;10.80;;
7813;SDS011;3952;48.364;16.022;2024-02-26T06:48:18;11.67;;;10.67;;
7813;SDS011;3952;48.364;16.022;2024-02-26T06:50:46;11.67;;;10.70;;
7813;SDS011;3952;48.364;16.022;2024-02-26T06:53:13;11.77;;;10.73;;
7813;SDS011;3952;48.364;16.022;2024-02-26T06:55:41;11.20;;;10.30;;
7813;SDS011;3952;48.364;16.022;2024-02-26T06:58:10;11.03;;;10.03;;
7813;SDS011;3952;48.364;16.022;2024-02-26T07:00:38;11.60;;;10.60;;
7813;SDS011;3952;48.364;16.022;2024-02-26T07:03:05;11.43;;;10.43;;
7813;SDS011;3952;48.364;16.022;2024-02-26T07:05:33;10.87;;;10.03;;
7813;SDS011;3952;48.364;16.022;2024-02-26T07:08:00;11.50;;;10.60;;
7813;SDS011;3952;48.364;16.022;2024-02-26T07:10:28;13.33;;;12.17;;
7813;SDS011;3952;48.364;16.022;2024-02-26T07:12:55;13.30;;;12.07;;
7813;SDS011;3952;48.364;16.022;2024-02-26T07:15:24;11.23;;;10.43;;
7813;SDS011;3952;48.364;16.022;2024-02-26T07:17:51;9.13;;;8.53;;
7813;SDS011;3952;48.364;16.022;2024-02-26T07:20:19;7.43;;;6.93;;
7813;SDS011;3952;48.364;16.022;2024-02-26T07:22:46;7.10;;;6.70;;
7813;SDS011;3952;48.364;16.022;2024-02-26T07:25:13;6.27;;;5.87;;
7813;SDS011;3952;48.364;16.022;2024-02-26T07:27:41;6.30;;;6.00;;
7813;SDS011;3952;48.364;16.022;2024-02-26T07:30:09;6.73;;;6.30;;
7813;SDS011;3952;48.364;16.022;2024-02-26T07:32:38;7.30;;;6.80;;
7813;SDS011;3952;48.364;16.022;2024-02-26T07:35:06;6.47;;;5.97;;
7813;SDS011;3952;48.364;16.022;2024-02-26T07:37:33;5.80;;;5.50;;
7813;SDS011;3952;48.364;16.022;2024-02-26T07:40:01;6.33;;;6.03;;
7813;SDS011;3952;48.364;16.022;2024-02-26T07:42:28;5.93;;;5.63;;
7813;SDS011;3952;48.364;16.022;2024-02-26T07:44:56;6.47;;;6.13;;
7813;SDS011;3952;48.364;16.022;2024-02-26T07:47:23;6.23;;;5.83;;
7813;SDS011;3952;48.364;16.022;2024-02-26T07:49:52;6.60;;;6.20;;
7813;SDS011;3952;48.364;16.022;2024-02-26T07:52:19;5.90;;;5.60;;
7813;SDS011;3952;48.364;16.022;2024-02-26T07:54:47;5.97;;;5.60;;
7813;SDS011;3952;48.364;16.022;2024-02-26T07:57:14;5.87;;;5.57;;
7813;SDS011;3952;48.364;16.022;2024-02-26T07:59:42;5.80;;;5.43;;
7813;SDS011;3952;48.364;16.022;2024-02-26T08:02:10;6.30;;;5.87;;
7813;SDS011;3952;48.364;16.022;2024-02-26T08:04:37;6.33;;;5.90;;
7813;SDS011;3952;48.364;16.022;2024-02-26T08:07:06;6.27;;;5.87;;
7813;SDS011;3952;48.364;16.022;2024-02-26T08:09:33;6.20;;;5.80;;
7813;SDS011;3952;48.364;16.022;2024-02-26T08:12:00;6.47;;;6.07;;
7813;SDS011;3952;48.364;16.022;2024-02-26T08:14:28;6.20;;;5.80;;
7813;SDS011;3952;48.364;16.022;2024-02-26T08:16:55;6.40;;;6.00;;
7813;SDS011;3952;48.364;16.022;2024-02-26T08:19:22;6.27;;;5.80;;
7813;SDS011;3952;48.364;16.022;2024-02-26T08:21:50;5.60;;;5.30;;
7813;SDS011;3952;48.364;16.022;2024-02-26T08:24:18;5.75;;;5.45;;
7813;SDS011;3952;48.364;16.022;2024-02-26T08:26:46;5.35;;;5.05;;
7813;SDS011;3952;48.364;16.022;2024-02-26T08:29:13;5.78;;;5.47;;
7813;SDS011;3952;48.364;16.022;2024-02-26T08:31:41;5.68;;;5.38;;
7813;SDS011;3952;48.364;16.022;2024-02-26T08:34:08;5.47;;;5.17;;
7813;SDS011;3952;48.364;16.022;2024-02-26T08:36:36;5.37;;;5.07;;
7813;SDS011;3952;48.364;16.022;2024-02-26T08:39:03;5.63;;;5.33;;
7813;SDS011;3952;48.364;16.022;2024-02-26T08:41:32;5.90;;;5.53;;
7813;SDS011;3952;48.364;16.022;2024-02-26T08:43:59;6.37;;;5.97;;
7813;SDS011;3952;48.364;16.022;2024-02-26T08:46:27;6.00;;;5.60;;
7813;SDS011;3952;48.364;16.022;2024-02-26T08:48:54;5.93;;;5.60;;
7813;SDS011;3952;48.364;16.022;2024-02-26T08:51:21;5.67;;;5.10;;
7813;SDS011;3952;48.364;16.022;2024-02-26T08:53:49;5.33;;;5.03;;
7813;SDS011;3952;48.364;16.022;2024-02-26T08:56:16;5.57;;;5.17;;
7813;SDS011;3952;48.364;16.022;2024-02-26T08:58:45;5.67;;;5.33;;
7813;SDS011;3952;48.364;16.022;2024-02-26T09:01:14;5.28;;;4.97;;
7813;SDS011;3952;48.364;16.022;2024-02-26T09:03:41;5.00;;;4.70;;
7813;SDS011;3952;48.364;16.022;2024-02-26T09:06:09;4.87;;;4.57;;
7813;SDS011;3952;48.364;16.022;2024-02-26T09:08:37;5.03;;;4.70;;
7813;SDS011;3952;48.364;16.022;2024-02-26T09:11:04;4.68;;;4.38;;
7813;SDS011;3952;48.364;16.022;2024-02-26T09:13:31;4.75;;;4.45;;
7813;SDS011;3952;48.364;16.022;2024-02-26T09:16:00;4.88;;;4.57;;
7813;SDS011;3952;48.364;16.022;2024-02-26T09:18:27;4.70;;;4.40;;
7813;SDS011;3952;48.364;16.022;2024-02-26T09:20:55;5.10;;;4.80;;
7813;SDS011;3952;48.364;16.022;2024-02-26T09:23:22;5.03;;;4.60;;
7813;SDS011;3952;48.364;16.022;2024-02-26T09:25:50;5.43;;;5.13;;
7813;SDS011;3952;48.364;16.022;2024-02-26T09:28:17;4.75;;;4.45;;
7813;SDS011;3952;48.364;16.022;2024-02-26T09:30:44;4.50;;;4.28;;
7813;SDS011;3952;48.364;16.022;2024-02-26T09:33:14;4.70;;;4.40;;
7813;SDS011;3952;48.364;16.022;2024-02-26T09:35:42;4.70;;;4.40;;
7813;SDS011;3952;48.364;16.022;2024-02-26T09:38:10;4.55;;;4.25;;
7813;SDS011;3952;48.364;16.022;2024-02-26T09:40:37;4.65;;;4.35;;
7813;SDS011;3952;48.364;16.022;2024-02-26T09:43:08;4.40;;;4.18;;
7813;SDS011;3952;48.364;16.022;2024-02-26T09:45:40;4.63;;;4.22;;
7813;SDS011;3952;48.364;16.022;2024-02-26T09:48:08;4.93;;;4.63;;
7813;SDS011;3952;48.364;16.022;2024-02-26T09:50:39;4.63;;;4.25;;
7813;SDS011;3952;48.364;16.022;2024-02-26T09:53:08;4.50;;;4.30;;
7813;SDS011;3952;48.364;16.022;2024-02-26T09:55:36;5.00;;;4.60;;
7813;SDS011;3952;48.364;16.022;2024-02-26T09:58:04;5.10;;;4.70;;
7813;SDS011;3952;48.364;16.022;2024-02-26T10:00:32;5.10;;;4.80;;
7813;SDS011;3952;48.364;16.022;2024-02-26T10:03:05;4.70;;;4.40;;
7813;SDS011;3952;48.364;16.022;2024-02-26T10:05:36;4.80;;;4.40;;
7813;SDS011;3952;48.364;16.022;2024-02-26T10:08:06;4.80;;;4.50;;
7813;SDS011;3952;48.364;16.022;2024-02-26T10:10:37;4.67;;;4.37;;
7813;SDS011;3952;48.364;16.022;2024-02-26T10:13:05;4.97;;;4.53;;
7813;SDS011;3952;48.364;16.022;2024-02-26T10:15:35;4.23;;;3.97;;
7813;SDS011;3952;48.364;16.022;2024-02-26T10:18:03;5.03;;;4.60;;
7813;SDS011;3952;48.364;16.022;2024-02-26T10:20:31;4.80;;;4.40;;
7813;SDS011;3952;48.364;16.022;2024-02-26T10:23:00;4.50;;;4.20;;
7813;SDS011;3952;48.364;16.022;2024-02-26T10:25:31;4.97;;;4.57;;
7813;SDS011;3952;48.364;16.022;2024-02-26T10:27:59;5.17;;;4.87;;
7813;SDS011;3952;48.364;16.022;2024-02-26T10:30:28;5.07;;;4.67;;
7813;SDS011;3952;48.364;16.022;2024-02-26T10:32:56;4.47;;;4.17;;
7813;SDS011;3952;48.364;16.022;2024-02-26T10:35:23;5.10;;;4.80;;
7813;SDS011;3952;48.364;16.022;2024-02-26T10:37:51;4.97;;;4.67;;
7813;SDS011;3952;48.364;16.022;2024-02-26T10:40:19;5.03;;;4.53;;
7813;SDS011;3952;48.364;16.022;2024-02-26T10:42:47;4.63;;;4.23;;
7813;SDS011;3952;48.364;16.022;2024-02-26T10:45:15;4.70;;;4.40;;
7813;SDS011;3952;48.364;16.022;2024-02-26T10:47:42;4.23;;;4.03;;
7813;SDS011;3952;48.364;16.022;2024-02-26T10:50:09;4.67;;;4.30;;
7813;SDS011;3952;48.364;16.022;2024-02-26T10:52:42;4.73;;;4.43;;
7813;SDS011;3952;48.364;16.022;2024-02-26T10:55:12;4.97;;;4.57;;
7813;SDS011;3952;48.364;16.022;2024-02-26T10:57:43;4.67;;;4.37;;
7813;SDS011;3952;48.364;16.022;2024-02-26T11:00:14;4.17;;;3.97;;
7813;SDS011;3952;48.364;16.022;2024-02-26T11:02:43;4.43;;;4.03;;
7813;SDS011;3952;48.364;16.022;2024-02-26T11:05:10;4.40;;;4.10;;
7813;SDS011;3952;48.364;16.022;2024-02-26T11:07:38;4.53;;;4.23;;
7813;SDS011;3952;48.364;16.022;2024-02-26T11:10:08;4.30;;;4.00;;
7813;SDS011;3952;48.364;16.022;2024-02-26T11:12:37;5.03;;;4.63;;
7813;SDS011;3952;48.364;16.022;2024-02-26T11:15:06;4.77;;;4.47;;
7813;SDS011;3952;48.364;16.022;2024-02-26T11:17:37;4.20;;;3.90;;
7813;SDS011;3952;48.364;16.022;2024-02-26T11:20:05;7.90;;;6.97;;
7813;SDS011;3952;48.364;16.022;2024-02-26T11:22:36;4.00;;;3.70;;
7813;SDS011;3952;48.364;16.022;2024-02-26T11:25:04;4.03;;;3.73;;
7813;SDS011;3952;48.364;16.022;2024-02-26T11:27:32;4.97;;;4.67;;
7813;SDS011;3952;48.364;16.022;2024-02-26T11:30:02;4.40;;;4.10;;
7813;SDS011;3952;48.364;16.022;2024-02-26T11:32:31;4.70;;;4.20;;
7813;SDS011;3952;48.364;16.022;2024-02-26T11:35:02;8.63;;;7.93;;
7813;SDS011;3952;48.364;16.022;2024-02-26T11:37:32;5.83;;;5.33;;
7813;SDS011;3952;48.364;16.022;2024-02-26T11:40:00;4.30;;;3.90;;
7813;SDS011;3952;48.364;16.022;2024-02-26T11:42:28;6.20;;;5.80;;
7813;SDS011;3952;48.364;16.022;2024-02-26T11:44:56;3.63;;;3.43;;
7813;SDS011;3952;48.364;16.022;2024-02-26T11:47:26;5.50;;;4.83;;
7813;SDS011;3952;48.364;16.022;2024-02-26T11:49:54;3.90;;;3.60;;
7813;SDS011;3952;48.364;16.022;2024-02-26T11:52:23;4.07;;;3.77;;
7813;SDS011;3952;48.364;16.022;2024-02-26T11:54:50;4.83;;;3.40;;
7813;SDS011;3952;48.364;16.022;2024-02-26T11:57:25;3.20;;;3.00;;
7813;SDS011;3952;48.364;16.022;2024-02-26T11:59:54;4.67;;;3.33;;
7813;SDS011;3952;48.364;16.022;2024-02-26T12:02:41;3.93;;;3.73;;
7813;SDS011;3952;48.364;16.022;2024-02-26T12:05:12;4.00;;;3.33;;
7813;SDS011;3952;48.364;16.022;2024-02-26T12:07:45;4.20;;;3.90;;
7813;SDS011;3952;48.364;16.022;2024-02-26T12:10:21;3.00;;;2.80;;
7813;SDS011;3952;48.364;16.022;2024-02-26T12:12:54;3.47;;;3.07;;
7813;SDS011;3952;48.364;16.022;2024-02-26T12:15:26;3.50;;;3.10;;
7813;SDS011;3952;48.364;16.022;2024-02-26T12:17:58;2.97;;;2.60;;
7813;SDS011;3952;48.364;16.022;2024-02-26T12:20:27;2.93;;;2.73;;
7813;SDS011;3952;48.364;16.022;2024-02-26T12:22:56;2.77;;;2.57;;
7813;SDS011;3952;48.364;16.022;2024-02-26T12:25:24;9.23;;;7.27;;
7813;SDS011;3952;48.364;16.022;2024-02-26T12:27:53;5.10;;;4.70;;
7813;SDS011;3952;48.364;16.022;2024-02-26T12:30:20;1.93;;;1.83;;
7813;SDS011;3952;48.364;16.022;2024-02-26T12:32:48;3.20;;;1.90;;
7813;SDS011;3952;48.364;16.022;2024-02-26T12:35:17;1.80;;;1.70;;
7813;SDS011;3952;48.364;16.022;2024-02-26T12:37:45;2.00;;;1.63;;
7813;SDS011;3952;48.364;16.022;2024-02-26T12:40:14;1.80;;;1.70;;
7813;SDS011;3952;48.364;16.022;2024-02-26T12:42:42;2.20;;;2.07;;
7813;SDS011;3952;48.364;16.022;2024-02-26T12:45:10;2.57;;;2.30;;
7813;SDS011;3952;48.364;16.022;2024-02-26T12:47:38;3.20;;;2.90;;
7813;SDS011;3952;48.364;16.022;2024-02-26T12:50:06;4.00;;;3.70;;
7813;SDS011;3952;48.364;16.022;2024-02-26T12:52:36;3.10;;;2.80;;
7813;SDS011;3952;48.364;16.022;2024-02-26T12:55:06;5.43;;;3.10;;
7813;SDS011;3952;48.364;16.022;2024-02-26T12:57:37;4.77;;;4.37;;
7813;SDS011;3952;48.364;16.022;2024-02-26T13:00:05;2.73;;;2.53;;
7813;SDS011;3952;48.364;16.022;2024-02-26T13:02:34;2.97;;;2.40;;
7813;SDS011;3952;48.364;16.022;2024-02-26T13:05:03;1.90;;;1.73;;
7813;SDS011;3952;48.364;16.022;2024-02-26T13:07:31;2.73;;;2.20;;
7813;SDS011;3952;48.364;16.022;2024-02-26T13:09:59;2.17;;;1.67;;
7813;SDS011;3952;48.364;16.022;2024-02-26T13:12:26;2.17;;;1.97;;
7813;SDS011;3952;48.364;16.022;2024-02-26T13:15:05;1.53;;;1.43;;
7813;SDS011;3952;48.364;16.022;2024-02-26T13:17:33;3.77;;;2.00;;
7813;SDS011;3952;48.364;16.022;2024-02-26T13:20:00;2.30;;;2.10;;
7813;SDS011;3952;48.364;16.022;2024-02-26T13:22:29;1.43;;;1.20;;
7813;SDS011;3952;48.364;16.022;2024-02-26T13:24:58;1.63;;;1.50;;
7813;SDS011;3952;48.364;16.022;2024-02-26T13:27:28;1.83;;;1.73;;
7813;SDS011;3952;48.364;16.022;2024-02-26T13:30:04;2.40;;;2.20;;
7813;SDS011;3952;48.364;16.022;2024-02-26T13:32:35;2.30;;;2.20;;
7813;SDS011;3952;48.364;16.022;2024-02-26T13:35:07;2.10;;;1.90;;
7813;SDS011;3952;48.364;16.022;2024-02-26T13:37:35;1.70;;;1.60;;
7813;SDS011;3952;48.364;16.022;2024-02-26T13:40:07;1.70;;;1.60;;
7813;SDS011;3952;48.364;16.022;2024-02-26T13:42:35;1.60;;;1.50;;
7813;SDS011;3952;48.364;16.022;2024-02-26T13:45:05;1.83;;;1.73;;
7813;SDS011;3952;48.364;16.022;2024-02-26T13:47:33;2.47;;;1.80;;
7813;SDS011;3952;48.364;16.022;2024-02-26T13:50:01;2.37;;;2.17;;
7813;SDS011;3952;48.364;16.022;2024-02-26T13:52:29;1.77;;;1.67;;
7813;SDS011;3952;48.364;16.022;2024-02-26T13:54:57;2.00;;;1.90;;
7813;SDS011;3952;48.364;16.022;2024-02-26T13:57:25;2.57;;;2.37;;
7813;SDS011;3952;48.364;16.022;2024-02-26T13:59:53;3.00;;;2.80;;
7813;SDS011;3952;48.364;16.022;2024-02-26T14:02:22;2.63;;;2.43;;
7813;SDS011;3952;48.364;16.022;2024-02-26T14:04:49;3.20;;;2.90;;
7813;SDS011;3952;48.364;16.022;2024-02-26T14:07:17;4.07;;;3.10;;
7813;SDS011;3952;48.364;16.022;2024-02-26T14:09:44;4.03;;;3.40;;
7813;SDS011;3952;48.364;16.022;2024-02-26T14:12:12;3.30;;;3.00;;
7813;SDS011;3952;48.364;16.022;2024-02-26T14:14:39;2.70;;;2.60;;
7813;SDS011;3952;48.364;16.022;2024-02-26T14:17:07;3.33;;;3.03;;
7813;SDS011;3952;48.364;16.022;2024-02-26T14:19:36;3.83;;;3.43;;
7813;SDS011;3952;48.364;16.022;2024-02-26T14:22:05;3.47;;;3.20;;
7813;SDS011;3952;48.364;16.022;2024-02-26T14:24:32;4.57;;;4.27;;
7813;SDS011;3952;48.364;16.022;2024-02-26T14:27:01;5.03;;;4.70;;
7813;SDS011;3952;48.364;16.022;2024-02-26T14:29:29;5.33;;;4.93;;
7813;SDS011;3952;48.364;16.022;2024-02-26T14:31:56;6.60;;;6.00;;
7813;SDS011;3952;48.364;16.022;2024-02-26T14:34:24;8.97;;;4.37;;
7813;SDS011;3952;48.364;16.022;2024-02-26T14:36:52;4.70;;;4.30;;
7813;SDS011;3952;48.364;16.022;2024-02-26T14:39:21;3.63;;;3.33;;
7813;SDS011;3952;48.364;16.022;2024-02-26T14:41:48;3.60;;;3.30;;
7813;SDS011;3952;48.364;16.022;2024-02-26T14:44:16;3.27;;;3.07;;
7813;SDS011;3952;48.364;16.022;2024-02-26T14:46:43;5.80;;;3.00;;
7813;SDS011;3952;48.364;16.022;2024-02-26T14:49:10;3.90;;;2.80;;
7813;SDS011;3952;48.364;16.022;2024-02-26T14:51:38;3.30;;;3.00;;
7813;SDS011;3952;48.364;16.022;2024-02-26T14:54:07;3.30;;;3.10;;